DLH35 EDDF-LEPA
Flight info
| Callsign | DLH35 |
|---|---|
| Flight time | N/A |
| Altitude | 37000 |
| Route | ANEKI2L ANEKI Y163 HERBI Y164 MOPAN DCT LUTIX DCT BENOT DCT NEMOS DCT GEVEA DCT INCUS DCT BALSI DCT RETNO DCT TUPOX DCT MTG DCT DIVKO DCT VATIR DCT PIVUS N852 VERSO L129 LUNIK |
| Aircraft | A320/M-SDE2E3FGIJ1LORWXYZ/HB1 |
Departure
| Time | 2026-05-05 13:38 |
|---|---|
| Airport | Frankfurt Main Airport (EDDF) |
Arrival
| Time | N/A |
|---|---|
| Airport | Palma de Mallorca Airport (LEPA) |
| Time | Latitude | Longitude | Altitude | Speed | Heading |
|---|---|---|---|---|---|
| 2026-05-05 12:42 | 50.04416 | 8.56276 | 358 ft | 0 kts | 162° |
| 2026-05-05 13:24 | 50.04419 | 8.56274 | 356 ft | 3 kts | 162° |
| 2026-05-05 13:24 | 50.04444 | 8.56262 | 362 ft | 4 kts | 162° |
| 2026-05-05 13:24 | 50.04470 | 8.56249 | 362 ft | 4 kts | 162° |
| 2026-05-05 13:25 | 50.04495 | 8.56236 | 361 ft | 4 kts | 162° |
| 2026-05-05 13:25 | 50.04502 | 8.56233 | 364 ft | 0 kts | 162° |
| 2026-05-05 13:26 | 50.04500 | 8.56234 | 364 ft | 2 kts | 163° |
| 2026-05-05 13:26 | 50.04483 | 8.56216 | 362 ft | 4 kts | 221° |
| 2026-05-05 13:26 | 50.04470 | 8.56188 | 361 ft | 3 kts | 240° |
| 2026-05-05 13:27 | 50.04464 | 8.56168 | 356 ft | 2 kts | 248° |
| 2026-05-05 13:27 | 50.04461 | 8.56155 | 358 ft | 1 kts | 248° |
| 2026-05-05 13:27 | 50.04460 | 8.56149 | 357 ft | 0 kts | 248° |
| 2026-05-05 13:27 | 50.04458 | 8.56130 | 359 ft | 5 kts | 261° |
| 2026-05-05 13:28 | 50.04443 | 8.56070 | 358 ft | 6 kts | 245° |
| 2026-05-05 13:28 | 50.04416 | 8.56038 | 356 ft | 4 kts | 201° |
| 2026-05-05 13:28 | 50.04394 | 8.56033 | 356 ft | 2 kts | 181° |
| 2026-05-05 13:28 | 50.04377 | 8.56038 | 362 ft | 3 kts | 167° |
| 2026-05-05 13:29 | 50.04346 | 8.56053 | 359 ft | 7 kts | 159° |
| 2026-05-05 13:29 | 50.04300 | 8.56071 | 358 ft | 7 kts | 180° |
| 2026-05-05 13:29 | 50.04262 | 8.56031 | 357 ft | 7 kts | 238° |
| 2026-05-05 13:29 | 50.04240 | 8.55958 | 354 ft | 7 kts | 236° |
| 2026-05-05 13:30 | 50.04192 | 8.55924 | 353 ft | 8 kts | 189° |
| 2026-05-05 13:30 | 50.04137 | 8.55949 | 352 ft | 8 kts | 159° |
| 2026-05-05 13:30 | 50.04088 | 8.55972 | 356 ft | 7 kts | 178° |
| 2026-05-05 13:30 | 50.04044 | 8.55933 | 355 ft | 8 kts | 240° |
| 2026-05-05 13:31 | 50.04023 | 8.55844 | 358 ft | 9 kts | 250° |
| 2026-05-05 13:31 | 50.04000 | 8.55747 | 353 ft | 10 kts | 250° |
| 2026-05-05 13:31 | 50.03974 | 8.55638 | 356 ft | 11 kts | 250° |
| 2026-05-05 13:31 | 50.03946 | 8.55522 | 354 ft | 11 kts | 250° |
| 2026-05-05 13:32 | 50.03920 | 8.55409 | 353 ft | 12 kts | 250° |
| 2026-05-05 13:32 | 50.03890 | 8.55288 | 357 ft | 12 kts | 249° |
| 2026-05-05 13:32 | 50.03861 | 8.55163 | 352 ft | 13 kts | 250° |
| 2026-05-05 13:32 | 50.03830 | 8.55029 | 353 ft | 14 kts | 249° |
| 2026-05-05 13:33 | 50.03794 | 8.54889 | 356 ft | 15 kts | 249° |
| 2026-05-05 13:33 | 50.03757 | 8.54736 | 350 ft | 16 kts | 250° |
| 2026-05-05 13:33 | 50.03732 | 8.54626 | 353 ft | 16 kts | 251° |
| 2026-05-05 13:34 | 50.03720 | 8.54571 | 354 ft | 17 kts | 249° |
| 2026-05-05 13:36 | 50.03320 | 8.52907 | 333 ft | 18 kts | 250° |
| 2026-05-05 13:36 | 50.03296 | 8.52809 | 333 ft | 1 kts | 249° |
| 2026-05-05 13:36 | 50.03296 | 8.52807 | 333 ft | 1 kts | 249° |
| 2026-05-05 13:36 | 50.03285 | 8.52762 | 332 ft | 6 kts | 250° |
| 2026-05-05 13:37 | 50.03272 | 8.52707 | 334 ft | 5 kts | 250° |
| 2026-05-05 13:37 | 50.03260 | 8.52654 | 332 ft | 8 kts | 250° |
| 2026-05-05 13:37 | 50.03196 | 8.52594 | 335 ft | 14 kts | 180° |
| 2026-05-05 13:37 | 50.02968 | 8.52598 | 335 ft | 66 kts | 180° |
| 2026-05-05 13:38 | 50.02292 | 8.52604 | 332 ft | 126 kts | 179° |
| 2026-05-05 13:38 | 50.01251 | 8.52596 | 402 ft | 166 kts | 179° |
| 2026-05-05 13:38 | 50.00114 | 8.52620 | 1058 ft | 165 kts | 181° |
| 2026-05-05 13:38 | 49.98958 | 8.52687 | 1770 ft | 170 kts | 180° |
| 2026-05-05 13:39 | 49.98131 | 8.52743 | 2053 ft | 183 kts | 179° |
| 2026-05-05 13:39 | 49.96777 | 8.52839 | 2340 ft | 206 kts | 179° |
| 2026-05-05 13:39 | 49.95791 | 8.52908 | 2579 ft | 220 kts | 179° |
| 2026-05-05 13:39 | 49.94231 | 8.53020 | 3268 ft | 227 kts | 178° |